createdAt,value
2022-10-19T00:00:37.737Z,0.00
2022-10-19T00:01:37.726Z,0.00
2022-10-19T00:02:37.698Z,0.00
2022-10-19T00:03:37.762Z,0.00
2022-10-19T00:04:37.690Z,0.00
2022-10-19T00:05:37.719Z,0.00
2022-10-19T00:06:37.695Z,0.00
2022-10-19T00:07:37.658Z,0.00
2022-10-19T00:08:37.729Z,0.00
2022-10-19T00:09:37.648Z,0.00
2022-10-19T00:10:37.634Z,0.00
2022-10-19T00:11:37.657Z,0.00
2022-10-19T00:12:37.637Z,0.00
2022-10-19T00:13:37.627Z,0.00
2022-10-19T00:14:37.639Z,0.00
2022-10-19T00:15:37.588Z,0.00
2022-10-19T00:16:38.419Z,0.00
2022-10-19T00:17:37.600Z,0.00
2022-10-19T00:18:37.587Z,0.00
2022-10-19T00:19:37.550Z,0.00
2022-10-19T00:20:37.613Z,0.00
2022-10-19T00:21:37.602Z,0.00
2022-10-19T00:22:37.549Z,0.00
2022-10-19T00:23:37.582Z,0.00
2022-10-19T00:24:37.535Z,0.00
2022-10-19T00:25:37.481Z,0.00
2022-10-19T00:26:37.507Z,0.00
2022-10-19T00:27:38.522Z,0.00
2022-10-19T00:28:37.653Z,0.00
2022-10-19T00:29:37.505Z,0.00
2022-10-19T00:30:37.549Z,0.00
2022-10-19T00:31:37.524Z,0.00
2022-10-19T00:32:37.462Z,0.00
2022-10-19T00:33:37.476Z,0.00
2022-10-19T00:34:37.442Z,0.00
2022-10-19T00:35:37.449Z,0.00
2022-10-19T00:36:37.466Z,0.00
2022-10-19T00:37:37.408Z,0.00
2022-10-19T00:38:37.453Z,0.00
2022-10-19T00:39:37.487Z,0.00
2022-10-19T00:40:37.464Z,0.00
2022-10-19T00:41:37.420Z,0.00
2022-10-19T00:42:37.418Z,0.00
2022-10-19T00:43:37.382Z,0.00
2022-10-19T00:44:37.389Z,0.00
2022-10-19T00:45:37.389Z,0.00
2022-10-19T00:46:37.374Z,0.00
2022-10-19T00:47:37.351Z,0.00
2022-10-19T00:48:37.391Z,0.00
2022-10-19T00:49:37.399Z,0.00
2022-10-19T00:50:37.330Z,0.00
2022-10-19T00:51:37.378Z,0.00
2022-10-19T00:52:37.312Z,0.00
2022-10-19T00:53:37.329Z,0.00
2022-10-19T00:54:37.304Z,0.00
2022-10-19T00:55:37.264Z,0.00
2022-10-19T00:56:37.281Z,0.00
2022-10-19T00:57:37.280Z,0.00
2022-10-19T00:58:38.241Z,0.00
2022-10-19T00:59:37.278Z,0.00
2022-10-19T01:00:37.428Z,0.00
2022-10-19T01:01:37.280Z,0.00
2022-10-19T01:02:37.462Z,0.00
2022-10-19T01:03:37.288Z,0.00
2022-10-19T01:04:37.234Z,0.00
2022-10-19T01:05:37.206Z,0.00
2022-10-19T01:06:37.346Z,0.00
2022-10-19T01:07:37.556Z,0.00
2022-10-19T01:08:37.211Z,0.00
2022-10-19T01:09:37.175Z,0.00
2022-10-19T01:10:37.188Z,0.00
2022-10-19T01:11:37.175Z,0.00
2022-10-19T01:12:37.192Z,0.00
2022-10-19T01:13:37.164Z,0.00
2022-10-19T01:14:37.215Z,0.00
2022-10-19T01:15:37.182Z,0.00
2022-10-19T01:16:37.100Z,0.00
2022-10-19T01:17:37.130Z,0.00
2022-10-19T01:18:37.119Z,0.00
2022-10-19T01:19:37.091Z,0.00
2022-10-19T01:20:37.134Z,0.00
2022-10-19T01:21:37.137Z,0.00
2022-10-19T01:22:37.077Z,0.00
2022-10-19T01:23:37.088Z,0.00
2022-10-19T01:24:39.851Z,0.00
2022-10-19T01:25:38.071Z,0.00
2022-10-19T01:26:37.035Z,0.00
2022-10-19T01:27:37.258Z,0.00
2022-10-19T01:28:37.111Z,0.00
2022-10-19T01:29:37.023Z,0.00
2022-10-19T01:30:37.022Z,0.00
2022-10-19T01:31:37.029Z,0.00
2022-10-19T01:32:37.027Z,0.00
2022-10-19T01:33:37.080Z,0.00
2022-10-19T01:34:36.991Z,0.00
2022-10-19T01:35:37.004Z,0.00
2022-10-19T01:36:37.027Z,0.00
2022-10-19T01:37:37.075Z,0.00
2022-10-19T01:38:36.984Z,0.00
2022-10-19T01:39:37.951Z,0.00
2022-10-19T01:40:36.950Z,0.00
2022-10-19T01:41:36.944Z,0.00
2022-10-19T01:42:36.962Z,0.00
2022-10-19T01:43:36.956Z,0.00
2022-10-19T02:01:55.585Z,0.00
2022-10-19T02:02:55.684Z,0.00
2022-10-19T02:03:55.571Z,0.00
2022-10-19T02:04:55.800Z,0.00
2022-10-19T02:05:55.537Z,0.00
2022-10-19T02:06:57.041Z,0.00
2022-10-19T02:07:58.058Z,0.00
2022-10-19T02:08:56.877Z,0.00
2022-10-19T02:09:57.554Z,0.00
2022-10-19T02:10:56.751Z,0.00
2022-10-19T02:11:57.672Z,0.00
2022-10-19T02:12:56.777Z,0.00
2022-10-19T02:13:56.787Z,0.00
2022-10-19T02:15:30.155Z,0.00
2022-10-19T02:15:56.581Z,0.00
2022-10-19T02:16:56.586Z,0.00
2022-10-19T02:17:56.568Z,0.00
2022-10-19T02:18:56.595Z,0.00
2022-10-19T02:19:56.592Z,0.00
2022-10-19T02:20:56.554Z,0.00
2022-10-19T02:21:56.557Z,0.00
2022-10-19T02:22:56.600Z,0.00
2022-10-19T02:23:56.543Z,0.00
2022-10-19T02:24:56.603Z,0.00
2022-10-19T02:25:56.519Z,0.00
2022-10-19T02:26:56.526Z,0.00
2022-10-19T02:27:57.558Z,0.00
2022-10-19T02:28:56.514Z,0.00
2022-10-19T02:29:56.515Z,0.00
2022-10-19T02:30:56.478Z,0.00
2022-10-19T02:31:56.489Z,0.00
2022-10-19T02:32:56.461Z,0.00
2022-10-19T02:33:56.433Z,0.00
2022-10-19T02:34:56.478Z,0.00
2022-10-19T02:35:56.437Z,0.00
2022-10-19T02:36:56.425Z,0.00
2022-10-19T02:37:56.441Z,0.00
2022-10-19T02:38:56.454Z,0.00
2022-10-19T02:39:56.419Z,0.00
2022-10-19T02:40:56.421Z,0.00
2022-10-19T02:41:56.411Z,0.00
2022-10-19T02:42:56.417Z,0.00
2022-10-19T02:43:56.375Z,0.00
2022-10-19T02:44:56.366Z,0.00
2022-10-19T02:45:56.425Z,0.00
2022-10-19T02:46:56.370Z,0.00
2022-10-19T02:47:56.367Z,0.00
2022-10-19T02:48:56.315Z,0.00
2022-10-19T02:49:56.337Z,0.00
2022-10-19T02:50:56.342Z,0.00
2022-10-19T02:51:56.312Z,0.00
2022-10-19T02:52:56.337Z,0.00
2022-10-19T02:53:57.332Z,0.00
2022-10-19T02:54:56.297Z,0.00
2022-10-19T02:55:56.297Z,0.00
2022-10-19T02:56:56.272Z,0.00
2022-10-19T02:57:56.304Z,0.00
2022-10-19T02:58:56.260Z,0.00
2022-10-19T02:59:56.256Z,0.00
2022-10-19T03:00:56.278Z,0.00
2022-10-19T03:01:56.238Z,0.00
2022-10-19T03:02:56.227Z,0.00
2022-10-19T03:03:56.248Z,0.00
2022-10-19T03:04:56.239Z,0.00
2022-10-19T03:05:56.203Z,0.00
2022-10-19T03:06:56.302Z,0.00
2022-10-19T03:07:56.178Z,0.00
2022-10-19T03:08:56.215Z,0.00
2022-10-19T03:09:56.178Z,0.00
2022-10-19T03:10:56.171Z,0.00
2022-10-19T03:11:56.146Z,0.00
2022-10-19T03:12:56.159Z,0.00
2022-10-19T03:13:56.154Z,0.00
2022-10-19T03:14:56.110Z,0.00
2022-10-19T03:15:56.158Z,0.00
2022-10-19T03:16:56.120Z,0.00
2022-10-19T03:17:56.115Z,0.00
2022-10-19T03:18:56.096Z,0.00
2022-10-19T03:19:56.112Z,0.00
2022-10-19T03:20:58.861Z,0.00
2022-10-19T03:21:57.065Z,0.00
2022-10-19T03:22:56.104Z,0.00
2022-10-19T03:23:56.060Z,0.00
2022-10-19T03:24:56.084Z,0.00
2022-10-19T03:25:56.061Z,0.00
2022-10-19T03:26:56.035Z,0.00
2022-10-19T03:27:56.069Z,0.00
2022-10-19T03:28:56.042Z,0.00
2022-10-19T03:29:56.104Z,0.00
2022-10-19T03:30:56.019Z,0.00
2022-10-19T03:31:56.015Z,0.00
2022-10-19T03:32:55.998Z,0.00
2022-10-19T03:33:55.992Z,0.00
2022-10-19T03:34:55.968Z,0.00
2022-10-19T03:35:56.022Z,0.00
2022-10-19T03:36:55.955Z,0.00
2022-10-19T03:37:55.966Z,0.00
2022-10-19T03:38:55.978Z,0.00
2022-10-19T03:39:55.966Z,0.00
2022-10-19T03:40:55.932Z,0.00
2022-10-19T03:41:55.942Z,0.00
2022-10-19T03:42:55.924Z,0.00
2022-10-19T03:43:55.999Z,0.00
2022-10-19T03:44:55.892Z,0.00
2022-10-19T03:45:55.878Z,0.00
2022-10-19T03:46:55.897Z,0.00
2022-10-19T04:02:20.576Z,0.00
2022-10-19T04:03:20.565Z,0.00
2022-10-19T04:04:20.570Z,0.00
2022-10-19T04:05:20.551Z,0.00
2022-10-19T04:06:22.197Z,0.00
2022-10-19T04:07:21.658Z,0.00
2022-10-19T04:08:21.640Z,0.00
2022-10-19T04:09:21.648Z,0.00
2022-10-19T04:10:21.637Z,0.00
2022-10-19T04:11:21.635Z,0.00
2022-10-19T04:12:21.633Z,0.00
2022-10-19T04:13:21.638Z,0.00
2022-10-19T04:14:32.010Z,0.00
2022-10-19T04:15:24.169Z,0.00
2022-10-19T04:16:21.589Z,0.00
2022-10-19T04:17:21.576Z,0.00
2022-10-19T04:18:21.575Z,0.00
2022-10-19T04:19:21.593Z,0.00
2022-10-19T04:20:22.558Z,0.00
2022-10-19T04:21:21.566Z,0.00
2022-10-19T04:22:21.575Z,0.00
2022-10-19T04:23:21.572Z,0.00
2022-10-19T04:24:21.585Z,0.00
2022-10-19T04:25:21.572Z,0.00
2022-10-19T04:26:21.514Z,0.00
2022-10-19T04:27:21.563Z,0.00
2022-10-19T04:28:21.521Z,0.00
2022-10-19T04:29:23.721Z,0.00
2022-10-19T04:30:21.548Z,0.00
2022-10-19T04:31:21.485Z,0.00
2022-10-19T04:32:21.542Z,0.00
2022-10-19T04:33:21.474Z,0.00
2022-10-19T04:34:21.492Z,0.00
2022-10-19T04:35:21.511Z,0.00
2022-10-19T04:36:21.509Z,0.00
2022-10-19T04:37:22.601Z,0.00
2022-10-19T04:38:21.497Z,0.00
2022-10-19T04:39:21.423Z,0.00
2022-10-19T04:40:21.428Z,0.00
2022-10-19T04:41:21.444Z,0.00
2022-10-19T04:42:21.452Z,0.00
2022-10-19T04:43:21.449Z,0.00
2022-10-19T04:44:21.456Z,0.00
2022-10-19T04:45:21.387Z,0.00
2022-10-19T04:46:21.398Z,0.00
2022-10-19T04:47:22.305Z,0.00
2022-10-19T04:48:21.383Z,0.00
2022-10-19T04:49:21.354Z,0.00
2022-10-19T04:50:21.349Z,0.00
2022-10-19T04:51:21.344Z,0.00
2022-10-19T04:52:21.380Z,0.00
2022-10-19T04:53:21.461Z,0.00
2022-10-19T04:54:21.526Z,0.00
2022-10-19T04:55:22.314Z,0.00
2022-10-19T04:56:21.308Z,0.00
2022-10-19T04:57:21.301Z,0.00
2022-10-19T04:58:21.274Z,0.00
2022-10-19T04:59:21.320Z,0.00
2022-10-19T05:00:21.270Z,0.00
2022-10-19T05:01:21.361Z,0.00
2022-10-19T05:02:21.257Z,0.00
2022-10-19T05:03:21.257Z,0.00
2022-10-19T05:04:21.376Z,0.00
2022-10-19T05:05:21.217Z,0.00
2022-10-19T05:06:21.203Z,0.00
2022-10-19T05:07:21.198Z,0.00
2022-10-19T05:08:21.230Z,0.00
2022-10-19T05:09:21.221Z,0.00
2022-10-19T05:10:21.222Z,0.00
2022-10-19T05:11:21.176Z,0.00
2022-10-19T05:12:21.182Z,0.00
2022-10-19T05:13:21.170Z,0.00
2022-10-19T05:14:21.174Z,0.00
2022-10-19T05:15:21.139Z,0.00
2022-10-19T05:16:21.164Z,0.00
2022-10-19T05:17:21.166Z,0.00
2022-10-19T05:18:21.139Z,0.00
2022-10-19T05:19:21.112Z,0.00
2022-10-19T05:20:21.103Z,4.00
2022-10-19T05:21:22.144Z,0.00
2022-10-19T05:22:21.178Z,4.00
2022-10-19T05:23:21.158Z,4.00
2022-10-19T05:24:21.149Z,4.00
2022-10-19T05:25:21.100Z,4.00
2022-10-19T05:26:21.067Z,4.00
2022-10-19T05:27:21.103Z,4.00
2022-10-19T05:28:21.121Z,8.00
2022-10-19T05:29:21.089Z,4.00
2022-10-19T05:30:21.112Z,8.00
2022-10-19T05:31:21.065Z,4.00
2022-10-19T05:32:21.058Z,8.00
2022-10-19T05:33:21.066Z,8.00
2022-10-19T05:34:21.020Z,12.00
2022-10-19T05:35:22.516Z,16.00
2022-10-19T05:36:20.993Z,16.00
2022-10-19T05:37:21.023Z,16.00
2022-10-19T05:38:21.784Z,24.00
2022-10-19T05:39:21.001Z,24.00
2022-10-19T05:40:20.980Z,32.00
2022-10-19T05:41:20.945Z,32.00
2022-10-19T05:42:21.198Z,40.00
2022-10-19T05:43:21.934Z,48.00
2022-10-19T05:44:20.946Z,52.00
2022-10-19T05:45:20.936Z,56.00
2022-10-19T05:46:20.915Z,64.00
2022-10-19T05:47:20.935Z,72.00
2022-10-19T05:48:20.906Z,76.00
2022-10-19T05:49:20.891Z,80.00
2022-10-19T05:50:20.902Z,92.00
2022-10-19T05:51:20.873Z,100.00
2022-10-19T05:52:20.871Z,104.00
2022-10-19T05:53:20.912Z,112.00
2022-10-19T05:54:22.713Z,124.00
2022-10-19T05:55:20.833Z,132.00
2022-10-19T05:56:20.820Z,148.00
2022-10-19T05:57:20.828Z,156.00
2022-10-19T05:58:20.809Z,172.00
2022-10-19T05:59:20.843Z,184.00
2022-10-19T06:00:20.811Z,204.00
2022-10-19T06:01:20.787Z,224.00
2022-10-19T06:02:20.791Z,240.00
2022-10-19T06:03:20.789Z,260.00
2022-10-19T06:04:20.778Z,292.00
2022-10-19T06:05:20.768Z,320.00
2022-10-19T06:06:20.756Z,344.00
2022-10-19T06:07:20.775Z,372.00
2022-10-19T06:08:20.767Z,376.00
2022-10-19T06:09:20.711Z,396.00
2022-10-19T06:10:20.719Z,408.00
2022-10-19T06:11:20.718Z,424.00
2022-10-19T06:12:24.308Z,436.00
2022-10-19T06:13:21.721Z,452.00
2022-10-19T06:14:20.690Z,480.00
2022-10-19T06:15:20.703Z,512.00
2022-10-19T06:16:20.681Z,552.00
2022-10-19T06:17:20.662Z,580.00
2022-10-19T06:18:20.684Z,604.00
2022-10-19T06:19:20.678Z,636.00
2022-10-19T06:20:20.655Z,644.00
2022-10-19T06:21:20.710Z,664.00
2022-10-19T06:22:20.615Z,724.00
2022-10-19T06:23:20.608Z,788.00
2022-10-19T06:24:20.631Z,796.00
2022-10-19T06:25:20.643Z,764.00
2022-10-19T06:26:20.586Z,768.00
2022-10-19T06:27:20.651Z,784.00
2022-10-19T06:28:20.602Z,800.00
2022-10-19T06:29:20.615Z,804.00
2022-10-19T06:30:20.594Z,812.00
2022-10-19T06:31:20.629Z,788.00
2022-10-19T06:32:20.584Z,796.00
2022-10-19T06:33:20.558Z,836.00
2022-10-19T06:34:20.579Z,844.00
2022-10-19T06:35:20.527Z,872.00
2022-10-19T06:36:20.545Z,920.00
2022-10-19T06:37:20.509Z,944.00
2022-10-19T06:38:20.499Z,1028.00
2022-10-19T06:39:20.491Z,1092.00
2022-10-19T06:40:20.531Z,1024.00
2022-10-19T06:41:20.498Z,1012.00
2022-10-19T06:42:20.519Z,1056.00
2022-10-19T06:43:21.314Z,1064.00
2022-10-19T06:44:20.537Z,1044.00
2022-10-19T06:45:20.461Z,984.00
2022-10-19T06:46:20.472Z,972.00
2022-10-19T06:47:20.486Z,968.00
2022-10-19T06:48:20.426Z,968.00
2022-10-19T06:49:20.434Z,944.00
2022-10-19T06:50:20.428Z,912.00
2022-10-19T06:51:20.415Z,896.00
2022-10-19T06:52:20.421Z,940.00
2022-10-19T06:53:20.394Z,960.00
2022-10-19T06:54:20.374Z,952.00
2022-10-19T06:55:20.380Z,980.00
2022-10-19T06:56:20.407Z,976.00
2022-10-19T06:57:20.367Z,952.00
2022-10-19T06:58:20.409Z,972.00
2022-10-19T06:59:20.352Z,1020.00
2022-10-19T07:00:20.329Z,1096.00
2022-10-19T07:01:20.393Z,1152.00
2022-10-19T07:02:20.333Z,1152.00
2022-10-19T07:03:20.348Z,1088.00
2022-10-19T07:04:20.313Z,1076.00
2022-10-19T07:05:20.321Z,1088.00
2022-10-19T07:06:20.308Z,1036.00
2022-10-19T07:07:20.288Z,1028.00
2022-10-19T07:08:20.320Z,1052.00
2022-10-19T07:09:20.299Z,1016.00
2022-10-19T07:10:20.287Z,1000.00
2022-10-19T07:11:20.296Z,1004.00
2022-10-19T07:12:20.250Z,1048.00
2022-10-19T07:13:20.262Z,1128.00
2022-10-19T07:14:20.292Z,1164.00
2022-10-19T07:15:20.234Z,1220.00
2022-10-19T07:16:21.298Z,1244.00
2022-10-19T07:17:20.232Z,1204.00
2022-10-19T07:18:20.246Z,1204.00
2022-10-19T07:19:20.227Z,1212.00
2022-10-19T07:20:20.206Z,1212.00
2022-10-19T07:21:20.193Z,1152.00
2022-10-19T07:22:24.404Z,1116.00
2022-10-19T07:23:22.190Z,1088.00
2022-10-19T07:24:20.234Z,1080.00
2022-10-19T07:25:20.193Z,1116.00
2022-10-19T07:26:20.155Z,1200.00
2022-10-19T07:27:20.160Z,1272.00
2022-10-19T07:28:20.157Z,1236.00
2022-10-19T07:29:20.174Z,1252.00
2022-10-19T07:30:20.169Z,1332.00
2022-10-19T07:31:20.207Z,1464.00
2022-10-19T07:32:20.182Z,1636.00
2022-10-19T07:33:20.124Z,1648.00
2022-10-19T07:34:21.539Z,1664.00
2022-10-19T07:35:20.133Z,1660.00
2022-10-19T07:36:20.104Z,1588.00
2022-10-19T07:37:20.127Z,1556.00
2022-10-19T07:38:20.123Z,1524.00
2022-10-19T07:39:20.047Z,1644.00
2022-10-19T07:40:20.115Z,1464.00
2022-10-19T07:41:20.049Z,1844.00
2022-10-19T07:43:20.066Z,1804.00
2022-10-19T07:44:20.095Z,1824.00
2022-10-19T07:45:20.068Z,1956.00
2022-10-19T07:46:20.035Z,2188.00
2022-10-19T07:47:20.041Z,2488.00
2022-10-19T07:48:20.032Z,2592.00
2022-10-19T07:49:19.988Z,2824.00
2022-10-19T07:50:20.029Z,2880.00
2022-10-19T07:51:20.051Z,3180.00
2022-10-19T07:52:19.999Z,3432.00
2022-10-19T07:53:20.059Z,3532.00
2022-10-19T07:54:20.000Z,3200.00
2022-10-19T07:55:19.937Z,3148.00
2022-10-19T07:56:19.942Z,3404.00
2022-10-19T07:57:19.993Z,3508.00
2022-10-19T07:58:19.911Z,3384.00
2022-10-19T07:59:19.954Z,3656.00
2022-10-19T08:00:19.927Z,3836.00
2022-10-19T08:01:19.946Z,4144.00
2022-10-19T08:02:20.028Z,4120.00
2022-10-19T08:03:57.543Z,3384.00
2022-10-19T08:05:22.016Z,4020.00
2022-10-19T08:06:19.928Z,3948.00
2022-10-19T08:07:19.889Z,3780.00
2022-10-19T08:08:19.878Z,3300.00
2022-10-19T08:09:47.215Z,3144.00
2022-10-19T08:10:21.887Z,3584.00
2022-10-19T08:11:19.871Z,3400.00
2022-10-19T08:12:19.806Z,2984.00
2022-10-19T08:13:19.840Z,3056.00
2022-10-19T08:14:19.828Z,3296.00
2022-10-19T08:16:38.943Z,2980.00
2022-10-19T08:17:40.096Z,2776.00
2022-10-19T08:18:40.916Z,2600.00
2022-10-19T08:19:40.185Z,2608.00
2022-10-19T08:20:40.116Z,2612.00
2022-10-19T08:21:40.117Z,2668.00
2022-10-19T08:22:40.913Z,2876.00
2022-10-19T08:23:40.124Z,3228.00
2022-10-19T08:24:40.084Z,3496.00
2022-10-19T08:25:40.109Z,3300.00
2022-10-19T08:26:43.059Z,3192.00
2022-10-19T08:27:40.114Z,3572.00
2022-10-19T08:28:40.131Z,3936.00
2022-10-19T08:29:41.055Z,4640.00
2022-10-19T08:30:40.143Z,5332.00
2022-10-19T08:31:40.120Z,4664.00
2022-10-19T08:32:40.093Z,4524.00
2022-10-19T08:33:40.033Z,4436.00
2022-10-19T08:34:40.108Z,4744.00
2022-10-19T08:35:40.017Z,6112.00
2022-10-19T08:37:44.871Z,6948.00
2022-10-19T08:38:42.024Z,6700.00
2022-10-19T08:39:40.734Z,7628.00
2022-10-19T08:40:40.421Z,7184.00
2022-10-19T08:41:40.123Z,8524.00
2022-10-19T08:42:40.013Z,7244.00
2022-10-19T08:43:40.049Z,6716.00
2022-10-19T08:44:40.064Z,7404.00
2022-10-19T08:46:39.999Z,9000.00
2022-10-19T08:47:40.006Z,13988.00
2022-10-19T08:48:40.017Z,9456.00
2022-10-19T08:49:39.920Z,10956.00
2022-10-19T08:50:39.965Z,10764.00
2022-10-19T08:51:40.037Z,10824.00
2022-10-19T08:52:40.079Z,14404.00
2022-10-19T08:53:39.917Z,15776.00
2022-10-19T08:54:39.994Z,20000.00
2022-10-19T08:55:39.848Z,27616.00
2022-10-19T08:56:50.539Z,18880.00
2022-10-19T08:57:41.917Z,17088.00
2022-10-19T08:58:40.435Z,17216.00
2022-10-19T08:59:39.866Z,17280.00
2022-10-19T09:01:39.837Z,17760.00
2022-10-19T09:02:39.839Z,17600.00
2022-10-19T09:03:56.523Z,17728.00
2022-10-19T09:04:42.427Z,22560.00
2022-10-19T09:05:40.017Z,17600.00
2022-10-19T09:06:39.897Z,26560.00
2022-10-19T09:07:39.960Z,23232.00
2022-10-19T09:08:39.903Z,31264.00
2022-10-19T09:09:39.835Z,31808.00
2022-10-19T09:10:39.767Z,39168.00
2022-10-19T09:11:40.431Z,39808.00
2022-10-19T09:12:39.797Z,32000.00
2022-10-19T09:13:47.031Z,35328.00
2022-10-19T09:14:41.687Z,41984.00
2022-10-19T09:15:39.732Z,33152.00
2022-10-19T09:16:39.725Z,37888.00
2022-10-19T09:17:39.756Z,52416.00
2022-10-19T09:18:39.843Z,52256.00
2022-10-19T09:19:39.803Z,57056.00
2022-10-19T09:20:40.427Z,58016.00
2022-10-19T09:21:47.026Z,53312.00
2022-10-19T09:22:41.676Z,97120.00
2022-10-19T09:23:39.732Z,94400.00
2022-10-19T09:24:39.753Z,85024.00
2022-10-19T09:25:40.434Z,65440.00
2022-10-19T09:26:39.657Z,51424.00
2022-10-19T09:27:39.714Z,41856.00
2022-10-19T09:28:40.265Z,35712.00
2022-10-19T09:29:39.631Z,32160.00
2022-10-19T09:30:39.602Z,30368.00
2022-10-19T09:31:40.661Z,27904.00
2022-10-19T09:32:40.643Z,26016.00
2022-10-19T09:33:39.634Z,24832.00
2022-10-19T09:34:39.639Z,23136.00
2022-10-19T09:36:22.463Z,21152.00
2022-10-19T09:36:51.146Z,20256.00
2022-10-19T09:37:41.535Z,20032.00
2022-10-19T09:40:37.276Z,18176.00
2022-10-19T09:41:37.268Z,18848.00
2022-10-19T09:42:38.566Z,18976.00
2022-10-19T09:43:38.534Z,18976.00
2022-10-19T09:44:38.453Z,19232.00
2022-10-19T09:45:38.562Z,19264.00
2022-10-19T09:46:39.042Z,19424.00
2022-10-19T09:48:13.353Z,19296.00
2022-10-19T09:48:38.413Z,18848.00
2022-10-19T09:49:38.388Z,18272.00
2022-10-19T09:51:10.815Z,18368.00
2022-10-19T09:52:13.620Z,18560.00
2022-10-19T09:53:12.009Z,18368.00
2022-10-19T09:54:11.774Z,17248.00
2022-10-19T09:55:12.603Z,18016.00
2022-10-19T09:56:13.054Z,18016.00
2022-10-19T09:57:12.647Z,17376.00
2022-10-19T09:58:12.681Z,17088.00
2022-10-19T09:58:38.333Z,16704.00
2022-10-19T09:59:38.356Z,16672.00
2022-10-19T10:00:38.514Z,16480.00
2022-10-19T10:01:43.247Z,14532.00
2022-10-19T10:02:40.366Z,13404.00
2022-10-19T10:03:39.132Z,15000.00
2022-10-19T10:04:38.427Z,15396.00
2022-10-19T10:05:38.361Z,15408.00
2022-10-19T10:06:38.473Z,15144.00
2022-10-19T10:07:38.329Z,14852.00
2022-10-19T10:08:38.357Z,14648.00
2022-10-19T10:09:38.316Z,14752.00
2022-10-19T10:10:38.306Z,14832.00
2022-10-19T10:11:39.112Z,14896.00
2022-10-19T10:12:39.052Z,15044.00
2022-10-19T10:13:38.345Z,14588.00
2022-10-19T10:14:39.117Z,14436.00
2022-10-19T10:15:38.351Z,14484.00
2022-10-19T10:16:38.334Z,14700.00
2022-10-19T10:17:38.374Z,12500.00
2022-10-19T10:18:38.286Z,14240.00
2022-10-19T10:19:38.274Z,14104.00
2022-10-19T10:20:38.183Z,14120.00
2022-10-19T10:21:38.170Z,14060.00
2022-10-19T10:22:38.204Z,14404.00
2022-10-19T10:23:38.280Z,14452.00
2022-10-19T10:24:38.199Z,14364.00
2022-10-19T10:25:38.863Z,14412.00
2022-10-19T10:26:38.318Z,14304.00
2022-10-19T10:27:39.156Z,14420.00
2022-10-19T10:28:38.190Z,14544.00
2022-10-19T10:29:38.251Z,14120.00
2022-10-19T10:30:38.157Z,8360.00
2022-10-19T10:31:38.134Z,8260.00
2022-10-19T10:32:38.098Z,7692.00
2022-10-19T10:33:44.977Z,8932.00
2022-10-19T10:34:57.311Z,7400.00
2022-10-19T10:35:40.177Z,7028.00
2022-10-19T10:36:38.111Z,6948.00
2022-10-19T10:37:38.123Z,7148.00
2022-10-19T10:38:38.106Z,7188.00
2022-10-19T10:39:38.204Z,7580.00
2022-10-19T10:40:38.068Z,9052.00
2022-10-19T10:41:38.079Z,7488.00
2022-10-19T10:42:38.181Z,12212.00
2022-10-19T10:43:38.099Z,12136.00
2022-10-19T10:44:38.254Z,6288.00
2022-10-19T10:45:38.141Z,5944.00
2022-10-19T10:46:38.104Z,6860.00
2022-10-19T10:47:38.115Z,11228.00
2022-10-19T10:48:38.075Z,10656.00
2022-10-19T10:49:38.076Z,9264.00
2022-10-19T10:50:38.029Z,8484.00
2022-10-19T10:51:37.985Z,10916.00
2022-10-19T10:52:38.729Z,11180.00
2022-10-19T10:53:37.982Z,10756.00
2022-10-19T10:54:38.114Z,10388.00
2022-10-19T10:55:38.629Z,10648.00
2022-10-19T10:56:38.016Z,10552.00
2022-10-19T10:57:37.927Z,10584.00
2022-10-19T10:58:37.897Z,10220.00
2022-10-19T10:59:41.671Z,10272.00
2022-10-19T11:01:07.661Z,9960.00
2022-10-19T11:01:37.870Z,10072.00
2022-10-19T11:02:37.809Z,10200.00
2022-10-19T11:03:37.854Z,10304.00
2022-10-19T11:04:37.827Z,9972.00
2022-10-19T11:05:37.876Z,9912.00
2022-10-19T11:06:39.598Z,10420.00
2022-10-19T11:07:38.171Z,10084.00
2022-10-19T11:08:37.920Z,10456.00
2022-10-19T11:09:37.828Z,10680.00
2022-10-19T11:10:37.837Z,10472.00
2022-10-19T11:11:37.837Z,9968.00
2022-10-19T11:12:37.819Z,10388.00
2022-10-19T11:13:38.825Z,10284.00
2022-10-19T11:14:37.810Z,10100.00
2022-10-19T11:15:37.807Z,9976.00
2022-10-19T11:16:37.724Z,9924.00
2022-10-19T11:17:37.867Z,9596.00
2022-10-19T11:18:37.741Z,9400.00
2022-10-19T11:19:37.786Z,9432.00
2022-10-19T11:20:37.746Z,9392.00
2022-10-19T11:21:37.687Z,9328.00
2022-10-19T11:22:38.706Z,9556.00
2022-10-19T11:23:37.707Z,9148.00
2022-10-19T11:24:38.727Z,9216.00
2022-10-19T11:25:37.695Z,9100.00
2022-10-19T11:26:52.874Z,8796.00
2022-10-19T11:27:37.906Z,8840.00
2022-10-19T11:28:37.608Z,8848.00
2022-10-19T11:29:37.644Z,8612.00
2022-10-19T11:30:41.577Z,8840.00
2022-10-19T11:31:39.623Z,8660.00
2022-10-19T11:32:37.800Z,8092.00
2022-10-19T11:33:37.682Z,8608.00
2022-10-19T11:34:37.619Z,7984.00
2022-10-19T11:35:37.616Z,6040.00
2022-10-19T11:36:37.684Z,8400.00
2022-10-19T11:37:45.670Z,8488.00
2022-10-19T11:38:39.562Z,7456.00
2022-10-19T11:39:37.606Z,8068.00
2022-10-19T11:40:40.266Z,8132.00
2022-10-19T11:41:38.538Z,8108.00
2022-10-19T11:42:37.591Z,8048.00
2022-10-19T11:43:37.605Z,8016.00
2022-10-19T11:44:37.529Z,7892.00
2022-10-19T11:45:37.555Z,7880.00
2022-10-19T11:46:37.558Z,7832.00
2022-10-19T11:47:37.614Z,7876.00
2022-10-19T11:48:40.330Z,7852.00
2022-10-19T11:49:39.519Z,7844.00
2022-10-19T11:50:37.574Z,7764.00
2022-10-19T11:51:37.517Z,7708.00
2022-10-19T11:52:37.676Z,7716.00
2022-10-19T11:53:37.497Z,7740.00
2022-10-19T11:54:37.485Z,7696.00
2022-10-19T11:55:38.386Z,7612.00
2022-10-19T11:56:51.523Z,7556.00
2022-10-19T11:57:39.473Z,7636.00
2022-10-19T11:58:37.460Z,7664.00
2022-10-19T11:59:37.438Z,7364.00
2022-10-19T12:00:39.818Z,7368.00
2022-10-19T12:01:38.472Z,7404.00
2022-10-19T12:02:37.744Z,7376.00
2022-10-19T12:03:37.389Z,7260.00
2022-10-19T12:04:37.446Z,7380.00
2022-10-19T12:05:37.384Z,7436.00
2022-10-19T12:06:37.386Z,7476.00
2022-10-19T12:07:37.360Z,7516.00
2022-10-19T12:08:37.433Z,7564.00
2022-10-19T12:09:37.418Z,7620.00
2022-10-19T12:10:37.406Z,7544.00
2022-10-19T12:11:37.351Z,7528.00
2022-10-19T12:12:37.643Z,7648.00
2022-10-19T12:13:37.399Z,7668.00
2022-10-19T12:14:37.381Z,7696.00
2022-10-19T12:15:38.306Z,7776.00
2022-10-19T12:16:37.309Z,7912.00
2022-10-19T12:17:37.575Z,7972.00
2022-10-19T12:18:37.342Z,7952.00
2022-10-19T12:19:37.263Z,7880.00
2022-10-19T12:20:37.294Z,7836.00
2022-10-19T12:21:37.247Z,7904.00
2022-10-19T12:22:37.264Z,7916.00
2022-10-19T12:23:38.268Z,8048.00
2022-10-19T12:24:37.276Z,8156.00
2022-10-19T12:25:37.206Z,8204.00
2022-10-19T12:26:37.276Z,7848.00
2022-10-19T12:27:37.454Z,7608.00
2022-10-19T12:28:37.204Z,7408.00
2022-10-19T12:29:37.255Z,7648.00
2022-10-19T12:30:37.206Z,8056.00
2022-10-19T12:31:37.301Z,7984.00
2022-10-19T12:32:37.172Z,8032.00
2022-10-19T12:33:37.225Z,7876.00
2022-10-19T12:34:38.190Z,7884.00
2022-10-19T12:35:37.231Z,7952.00
2022-10-19T12:36:37.931Z,8028.00
2022-10-19T12:37:37.364Z,8072.00
2022-10-19T12:38:39.714Z,8332.00
2022-10-19T12:39:39.288Z,8220.00
2022-10-19T12:40:37.142Z,8172.00
2022-10-19T12:41:37.908Z,8328.00
2022-10-19T12:42:37.160Z,8344.00
2022-10-19T12:43:37.151Z,8300.00
2022-10-19T12:44:37.089Z,8236.00
2022-10-19T12:45:37.174Z,8388.00
2022-10-19T12:46:37.171Z,8428.00
2022-10-19T12:47:37.435Z,8432.00
2022-10-19T12:48:37.123Z,8424.00
2022-10-19T12:49:37.069Z,8428.00
2022-10-19T12:50:38.473Z,8424.00
2022-10-19T12:51:37.077Z,8488.00
2022-10-19T12:52:37.469Z,8300.00
2022-10-19T12:53:37.070Z,8028.00
2022-10-19T12:54:37.129Z,8200.00
2022-10-19T12:55:37.037Z,7836.00
2022-10-19T12:56:37.149Z,7664.00
2022-10-19T12:57:37.241Z,8132.00
2022-10-19T12:58:37.005Z,8048.00
2022-10-19T12:59:37.016Z,7864.00
2022-10-19T13:00:37.010Z,7948.00
2022-10-19T13:01:37.071Z,7940.00
2022-10-19T13:02:37.703Z,7728.00
2022-10-19T13:03:37.027Z,7548.00
2022-10-19T13:04:36.954Z,8056.00
2022-10-19T13:05:36.966Z,8344.00
2022-10-19T13:06:36.909Z,8456.00
2022-10-19T13:07:37.349Z,8408.00
2022-10-19T13:08:36.972Z,8368.00
2022-10-19T13:09:36.937Z,8296.00
2022-10-19T13:10:36.938Z,8288.00
2022-10-19T13:11:36.919Z,8224.00
2022-10-19T13:12:37.141Z,8104.00